sensor_id;sensor_type;location;lat;lon;timestamp;temperature;humidity
35920;DHT22;36160;53.370;-6.196;2023-02-15T00:01:08;9.50;54.50
35920;DHT22;36160;53.370;-6.196;2023-02-15T00:03:34;9.50;50.70
35920;DHT22;36160;53.370;-6.196;2023-02-15T00:06:01;9.50;60.90
35920;DHT22;36160;53.370;-6.196;2023-02-15T00:08:27;9.50;65.50
35920;DHT22;36160;53.370;-6.196;2023-02-15T00:10:53;9.40;76.10
35920;DHT22;36160;53.370;-6.196;2023-02-15T00:13:18;9.50;74.30
35920;DHT22;36160;53.370;-6.196;2023-02-15T00:15:44;9.40;81.20
35920;DHT22;36160;53.370;-6.196;2023-02-15T00:18:10;9.40;90.40
35920;DHT22;36160;53.370;-6.196;2023-02-15T00:20:35;9.40;92.70
35920;DHT22;36160;53.370;-6.196;2023-02-15T00:23:01;9.40;98.70
35920;DHT22;36160;53.370;-6.196;2023-02-15T00:25:26;9.40;99.90
35920;DHT22;36160;53.370;-6.196;2023-02-15T00:27:52;9.40;99.90
35920;DHT22;36160;53.370;-6.196;2023-02-15T00:30:18;9.30;99.90
35920;DHT22;36160;53.370;-6.196;2023-02-15T00:32:44;9.30;99.90
35920;DHT22;36160;53.370;-6.196;2023-02-15T00:35:09;9.30;99.90
35920;DHT22;36160;53.370;-6.196;2023-02-15T00:37:36;9.30;99.90
35920;DHT22;36160;53.370;-6.196;2023-02-15T00:40:01;9.30;99.90
35920;DHT22;36160;53.370;-6.196;2023-02-15T00:42:27;9.20;99.90
35920;DHT22;36160;53.370;-6.196;2023-02-15T00:44:53;9.20;99.90
35920;DHT22;36160;53.370;-6.196;2023-02-15T00:47:18;9.20;99.90
35920;DHT22;36160;53.370;-6.196;2023-02-15T00:49:44;9.20;99.90
35920;DHT22;36160;53.370;-6.196;2023-02-15T00:52:10;9.20;99.90
35920;DHT22;36160;53.370;-6.196;2023-02-15T00:54:35;9.20;99.90
35920;DHT22;36160;53.370;-6.196;2023-02-15T00:57:01;9.20;99.90
35920;DHT22;36160;53.370;-6.196;2023-02-15T00:59:27;9.10;99.90
35920;DHT22;36160;53.370;-6.196;2023-02-15T01:01:53;9.20;99.90
35920;DHT22;36160;53.370;-6.196;2023-02-15T01:04:18;9.20;99.90
35920;DHT22;36160;53.370;-6.196;2023-02-15T01:06:44;9.10;99.90
35920;DHT22;36160;53.370;-6.196;2023-02-15T01:09:09;9.10;99.90
35920;DHT22;36160;53.370;-6.196;2023-02-15T01:11:35;9.10;99.90
35920;DHT22;36160;53.370;-6.196;2023-02-15T01:14:01;9.20;99.90
35920;DHT22;36160;53.370;-6.196;2023-02-15T01:16:28;9.20;99.90
35920;DHT22;36160;53.370;-6.196;2023-02-15T01:18:54;9.10;99.90
35920;DHT22;36160;53.370;-6.196;2023-02-15T01:21:22;9.20;99.90
35920;DHT22;36160;53.370;-6.196;2023-02-15T01:23:49;9.10;99.90
35920;DHT22;36160;53.370;-6.196;2023-02-15T01:26:16;9.10;99.90
35920;DHT22;36160;53.370;-6.196;2023-02-15T01:28:41;9.20;99.90
35920;DHT22;36160;53.370;-6.196;2023-02-15T01:31:12;9.10;99.90
35920;DHT22;36160;53.370;-6.196;2023-02-15T01:33:40;9.20;99.90
35920;DHT22;36160;53.370;-6.196;2023-02-15T01:36:06;9.10;99.90
35920;DHT22;36160;53.370;-6.196;2023-02-15T01:38:33;9.10;99.90
35920;DHT22;36160;53.370;-6.196;2023-02-15T01:40:59;9.20;99.90
35920;DHT22;36160;53.370;-6.196;2023-02-15T01:43:47;9.20;99.90
35920;DHT22;36160;53.370;-6.196;2023-02-15T01:46:14;9.10;99.90
35920;DHT22;36160;53.370;-6.196;2023-02-15T01:48:46;9.10;99.90
35920;DHT22;36160;53.370;-6.196;2023-02-15T01:51:13;9.10;99.90
35920;DHT22;36160;53.370;-6.196;2023-02-15T01:56:39;9.00;99.90
35920;DHT22;36160;53.370;-6.196;2023-02-15T01:59:09;9.00;99.90
35920;DHT22;36160;53.370;-6.196;2023-02-15T02:01:38;9.00;99.90
35920;DHT22;36160;53.370;-6.196;2023-02-15T02:04:06;9.00;99.90
35920;DHT22;36160;53.370;-6.196;2023-02-15T02:06:35;9.00;99.90
35920;DHT22;36160;53.370;-6.196;2023-02-15T02:09:02;9.00;99.90
35920;DHT22;36160;53.370;-6.196;2023-02-15T02:11:27;9.00;99.90
35920;DHT22;36160;53.370;-6.196;2023-02-15T02:13:54;9.00;99.90
35920;DHT22;36160;53.370;-6.196;2023-02-15T02:24:56;9.00;99.90
35920;DHT22;36160;53.370;-6.196;2023-02-15T02:27:34;9.00;99.90
35920;DHT22;36160;53.370;-6.196;2023-02-15T02:30:40;9.00;99.90
35920;DHT22;36160;53.370;-6.196;2023-02-15T02:39:12;9.00;99.90
35920;DHT22;36160;53.370;-6.196;2023-02-15T02:47:07;8.90;99.90
35920;DHT22;36160;53.370;-6.196;2023-02-15T02:49:40;8.90;99.90
35920;DHT22;36160;53.370;-6.196;2023-02-15T02:52:51;9.00;99.90
35920;DHT22;36160;53.370;-6.196;2023-02-15T02:54:52;8.90;99.90
35920;DHT22;36160;53.370;-6.196;2023-02-15T02:57:18;9.00;99.90
35920;DHT22;36160;53.370;-6.196;2023-02-15T02:59:46;8.90;99.90
35920;DHT22;36160;53.370;-6.196;2023-02-15T03:02:25;8.90;99.90
35920;DHT22;36160;53.370;-6.196;2023-02-15T03:04:57;8.90;99.90
35920;DHT22;36160;53.370;-6.196;2023-02-15T03:07:30;8.90;99.90
35920;DHT22;36160;53.370;-6.196;2023-02-15T03:09:58;8.90;99.90
35920;DHT22;36160;53.370;-6.196;2023-02-15T03:12:32;9.00;99.90
35920;DHT22;36160;53.370;-6.196;2023-02-15T03:15:03;8.90;99.90
35920;DHT22;36160;53.370;-6.196;2023-02-15T03:17:32;8.90;99.90
35920;DHT22;36160;53.370;-6.196;2023-02-15T03:20:07;8.90;99.90
35920;DHT22;36160;53.370;-6.196;2023-02-15T03:22:37;8.90;99.90
35920;DHT22;36160;53.370;-6.196;2023-02-15T03:25:15;9.00;99.90
35920;DHT22;36160;53.370;-6.196;2023-02-15T03:27:46;9.00;99.90
35920;DHT22;36160;53.370;-6.196;2023-02-15T03:30:13;9.00;99.90
35920;DHT22;36160;53.370;-6.196;2023-02-15T03:32:41;9.00;99.90
35920;DHT22;36160;53.370;-6.196;2023-02-15T03:35:08;9.00;99.90
35920;DHT22;36160;53.370;-6.196;2023-02-15T03:37:39;9.00;99.90
35920;DHT22;36160;53.370;-6.196;2023-02-15T03:40:18;9.00;99.90
35920;DHT22;36160;53.370;-6.196;2023-02-15T03:45:46;9.10;99.90
35920;DHT22;36160;53.370;-6.196;2023-02-15T03:48:43;9.00;99.90
35920;DHT22;36160;53.370;-6.196;2023-02-15T03:51:16;9.10;99.90
35920;DHT22;36160;53.370;-6.196;2023-02-15T03:56:35;9.10;99.90
35920;DHT22;36160;53.370;-6.196;2023-02-15T03:59:02;9.10;99.90
35920;DHT22;36160;53.370;-6.196;2023-02-15T04:02:04;9.20;99.90
35920;DHT22;36160;53.370;-6.196;2023-02-15T04:04:40;9.20;99.90
35920;DHT22;36160;53.370;-6.196;2023-02-15T04:07:08;9.30;99.90
35920;DHT22;36160;53.370;-6.196;2023-02-15T04:09:34;9.30;99.90
35920;DHT22;36160;53.370;-6.196;2023-02-15T04:12:18;9.40;99.90
35920;DHT22;36160;53.370;-6.196;2023-02-15T04:14:44;9.40;99.90
35920;DHT22;36160;53.370;-6.196;2023-02-15T04:17:28;9.40;99.90
35920;DHT22;36160;53.370;-6.196;2023-02-15T04:19:54;9.50;99.90
35920;DHT22;36160;53.370;-6.196;2023-02-15T04:22:38;9.40;99.90
35920;DHT22;36160;53.370;-6.196;2023-02-15T04:25:22;9.40;99.90
35920;DHT22;36160;53.370;-6.196;2023-02-15T04:27:50;9.40;99.90
35920;DHT22;36160;53.370;-6.196;2023-02-15T04:30:18;9.50;99.90
35920;DHT22;36160;53.370;-6.196;2023-02-15T04:32:45;9.50;99.90
35920;DHT22;36160;53.370;-6.196;2023-02-15T04:35:11;9.50;99.90
35920;DHT22;36160;53.370;-6.196;2023-02-15T04:37:38;9.60;99.90
35920;DHT22;36160;53.370;-6.196;2023-02-15T04:40:05;9.60;99.90
35920;DHT22;36160;53.370;-6.196;2023-02-15T04:42:31;9.60;99.90
35920;DHT22;36160;53.370;-6.196;2023-02-15T04:44:56;9.60;99.90
35920;DHT22;36160;53.370;-6.196;2023-02-15T04:47:22;9.70;99.90
35920;DHT22;36160;53.370;-6.196;2023-02-15T04:49:48;9.70;99.90
35920;DHT22;36160;53.370;-6.196;2023-02-15T04:52:13;9.80;99.90
35920;DHT22;36160;53.370;-6.196;2023-02-15T04:54:39;9.70;99.90
35920;DHT22;36160;53.370;-6.196;2023-02-15T04:57:05;9.80;99.90
35920;DHT22;36160;53.370;-6.196;2023-02-15T04:59:31;9.80;99.90
35920;DHT22;36160;53.370;-6.196;2023-02-15T05:01:56;9.80;99.90
35920;DHT22;36160;53.370;-6.196;2023-02-15T05:04:22;9.90;99.90
35920;DHT22;36160;53.370;-6.196;2023-02-15T05:06:48;9.90;99.90
35920;DHT22;36160;53.370;-6.196;2023-02-15T05:09:14;9.90;99.90
35920;DHT22;36160;53.370;-6.196;2023-02-15T05:11:40;9.90;99.90
35920;DHT22;36160;53.370;-6.196;2023-02-15T05:14:05;9.90;99.90
35920;DHT22;36160;53.370;-6.196;2023-02-15T05:16:31;9.90;99.90
35920;DHT22;36160;53.370;-6.196;2023-02-15T05:18:57;9.90;99.90
35920;DHT22;36160;53.370;-6.196;2023-02-15T05:21:23;9.90;99.90
35920;DHT22;36160;53.370;-6.196;2023-02-15T05:23:48;9.90;99.90
35920;DHT22;36160;53.370;-6.196;2023-02-15T05:26:18;9.90;99.90
35920;DHT22;36160;53.370;-6.196;2023-02-15T05:29:03;9.50;99.90
35920;DHT22;36160;53.370;-6.196;2023-02-15T05:31:30;9.10;99.90
35920;DHT22;36160;53.370;-6.196;2023-02-15T05:33:56;8.80;99.90
35920;DHT22;36160;53.370;-6.196;2023-02-15T05:36:22;8.70;99.90
35920;DHT22;36160;53.370;-6.196;2023-02-15T05:38:48;8.50;99.90
35920;DHT22;36160;53.370;-6.196;2023-02-15T05:41:14;8.30;99.90
35920;DHT22;36160;53.370;-6.196;2023-02-15T05:43:39;8.30;99.90
35920;DHT22;36160;53.370;-6.196;2023-02-15T05:46:06;8.20;99.90
35920;DHT22;36160;53.370;-6.196;2023-02-15T05:48:32;8.20;99.90
35920;DHT22;36160;53.370;-6.196;2023-02-15T05:51:04;8.00;99.90
35920;DHT22;36160;53.370;-6.196;2023-02-15T05:53:33;8.10;99.90
35920;DHT22;36160;53.370;-6.196;2023-02-15T05:55:59;8.00;99.90
35920;DHT22;36160;53.370;-6.196;2023-02-15T05:58:26;8.00;99.90
35920;DHT22;36160;53.370;-6.196;2023-02-15T06:00:53;8.00;99.90
35920;DHT22;36160;53.370;-6.196;2023-02-15T06:03:18;8.00;99.90
35920;DHT22;36160;53.370;-6.196;2023-02-15T06:05:44;8.00;99.90
35920;DHT22;36160;53.370;-6.196;2023-02-15T06:08:10;8.00;99.90
35920;DHT22;36160;53.370;-6.196;2023-02-15T06:10:35;7.90;99.90
35920;DHT22;36160;53.370;-6.196;2023-02-15T06:13:01;8.00;99.90
35920;DHT22;36160;53.370;-6.196;2023-02-15T06:15:27;7.90;99.90
35920;DHT22;36160;53.370;-6.196;2023-02-15T06:17:53;7.90;99.90
35920;DHT22;36160;53.370;-6.196;2023-02-15T06:20:18;7.80;99.90
35920;DHT22;36160;53.370;-6.196;2023-02-15T06:22:44;7.90;99.90
35920;DHT22;36160;53.370;-6.196;2023-02-15T06:25:10;7.80;99.90
35920;DHT22;36160;53.370;-6.196;2023-02-15T06:27:37;7.80;99.90
35920;DHT22;36160;53.370;-6.196;2023-02-15T06:30:04;7.80;99.90
35920;DHT22;36160;53.370;-6.196;2023-02-15T06:32:31;7.80;99.90
35920;DHT22;36160;53.370;-6.196;2023-02-15T06:34:57;7.70;99.90
35920;DHT22;36160;53.370;-6.196;2023-02-15T06:37:22;7.70;99.90
35920;DHT22;36160;53.370;-6.196;2023-02-15T06:39:48;7.70;99.90
35920;DHT22;36160;53.370;-6.196;2023-02-15T06:42:14;7.70;99.90
35920;DHT22;36160;53.370;-6.196;2023-02-15T06:44:39;7.70;99.90
35920;DHT22;36160;53.370;-6.196;2023-02-15T06:47:05;7.60;99.90
35920;DHT22;36160;53.370;-6.196;2023-02-15T06:49:31;7.60;99.90
35920;DHT22;36160;53.370;-6.196;2023-02-15T06:51:56;7.70;99.90
35920;DHT22;36160;53.370;-6.196;2023-02-15T06:54:22;7.50;99.90
35920;DHT22;36160;53.370;-6.196;2023-02-15T06:56:48;7.60;99.90
35920;DHT22;36160;53.370;-6.196;2023-02-15T06:59:13;7.50;99.90
35920;DHT22;36160;53.370;-6.196;2023-02-15T07:01:39;7.50;99.90
35920;DHT22;36160;53.370;-6.196;2023-02-15T07:04:05;7.50;99.90
35920;DHT22;36160;53.370;-6.196;2023-02-15T07:06:32;7.50;99.90
35920;DHT22;36160;53.370;-6.196;2023-02-15T07:08:58;7.40;99.90
35920;DHT22;36160;53.370;-6.196;2023-02-15T07:11:24;7.50;99.90
35920;DHT22;36160;53.370;-6.196;2023-02-15T07:14:08;7.50;99.90
35920;DHT22;36160;53.370;-6.196;2023-02-15T07:16:34;7.50;99.90
35920;DHT22;36160;53.370;-6.196;2023-02-15T07:19:00;7.40;99.90
35920;DHT22;36160;53.370;-6.196;2023-02-15T07:21:25;7.40;99.90
35920;DHT22;36160;53.370;-6.196;2023-02-15T07:23:52;7.30;99.90
35920;DHT22;36160;53.370;-6.196;2023-02-15T07:26:17;7.30;99.90
35920;DHT22;36160;53.370;-6.196;2023-02-15T07:28:43;7.20;99.90
35920;DHT22;36160;53.370;-6.196;2023-02-15T07:31:09;7.20;99.90
35920;DHT22;36160;53.370;-6.196;2023-02-15T07:33:35;7.20;99.90
35920;DHT22;36160;53.370;-6.196;2023-02-15T07:36:03;7.20;99.90
35920;DHT22;36160;53.370;-6.196;2023-02-15T07:38:33;7.20;99.90
35920;DHT22;36160;53.370;-6.196;2023-02-15T07:41:01;7.20;99.90
35920;DHT22;36160;53.370;-6.196;2023-02-15T07:43:28;7.30;99.90
35920;DHT22;36160;53.370;-6.196;2023-02-15T07:45:58;7.30;99.90
35920;DHT22;36160;53.370;-6.196;2023-02-15T07:48:24;7.30;99.90
35920;DHT22;36160;53.370;-6.196;2023-02-15T07:50:50;7.30;99.90
35920;DHT22;36160;53.370;-6.196;2023-02-15T07:53:15;7.40;99.90
35920;DHT22;36160;53.370;-6.196;2023-02-15T07:55:41;7.40;99.90
35920;DHT22;36160;53.370;-6.196;2023-02-15T07:58:07;7.40;99.90
35920;DHT22;36160;53.370;-6.196;2023-02-15T08:00:33;7.40;99.90
35920;DHT22;36160;53.370;-6.196;2023-02-15T08:03:18;7.30;99.90
35920;DHT22;36160;53.370;-6.196;2023-02-15T08:05:44;7.40;99.90
35920;DHT22;36160;53.370;-6.196;2023-02-15T08:08:11;7.40;99.90
35920;DHT22;36160;53.370;-6.196;2023-02-15T08:11:25;7.40;99.90
35920;DHT22;36160;53.370;-6.196;2023-02-15T08:14:11;7.40;99.90
35920;DHT22;36160;53.370;-6.196;2023-02-15T08:16:46;7.40;99.90
35920;DHT22;36160;53.370;-6.196;2023-02-15T08:21:48;7.50;99.90
35920;DHT22;36160;53.370;-6.196;2023-02-15T08:24:17;7.50;99.90
35920;DHT22;36160;53.370;-6.196;2023-02-15T08:26:43;7.60;99.90
35920;DHT22;36160;53.370;-6.196;2023-02-15T08:29:11;7.50;99.90
35920;DHT22;36160;53.370;-6.196;2023-02-15T08:31:37;7.60;99.90
35920;DHT22;36160;53.370;-6.196;2023-02-15T08:34:03;7.50;99.90
35920;DHT22;36160;53.370;-6.196;2023-02-15T08:36:30;7.60;99.90
35920;DHT22;36160;53.370;-6.196;2023-02-15T08:38:58;7.50;99.90
35920;DHT22;36160;53.370;-6.196;2023-02-15T08:41:26;7.60;99.90
35920;DHT22;36160;53.370;-6.196;2023-02-15T08:43:53;7.70;99.90
35920;DHT22;36160;53.370;-6.196;2023-02-15T08:46:21;7.80;99.90
35920;DHT22;36160;53.370;-6.196;2023-02-15T08:48:47;7.90;99.90
35920;DHT22;36160;53.370;-6.196;2023-02-15T08:51:15;7.90;99.90
35920;DHT22;36160;53.370;-6.196;2023-02-15T08:53:44;7.90;99.90
35920;DHT22;36160;53.370;-6.196;2023-02-15T08:56:10;7.90;99.90
35920;DHT22;36160;53.370;-6.196;2023-02-15T08:58:37;7.90;99.90
35920;DHT22;36160;53.370;-6.196;2023-02-15T09:01:14;7.90;99.90
35920;DHT22;36160;53.370;-6.196;2023-02-15T09:03:44;7.90;99.90
35920;DHT22;36160;53.370;-6.196;2023-02-15T09:06:10;7.90;99.90
35920;DHT22;36160;53.370;-6.196;2023-02-15T09:08:36;8.00;99.90
35920;DHT22;36160;53.370;-6.196;2023-02-15T09:11:11;7.90;99.90
35920;DHT22;36160;53.370;-6.196;2023-02-15T09:13:38;7.90;99.90
35920;DHT22;36160;53.370;-6.196;2023-02-15T09:16:06;7.90;99.90
35920;DHT22;36160;53.370;-6.196;2023-02-15T09:18:34;7.90;99.90
35920;DHT22;36160;53.370;-6.196;2023-02-15T09:21:10;7.90;99.90
35920;DHT22;36160;53.370;-6.196;2023-02-15T09:23:39;7.80;99.90
35920;DHT22;36160;53.370;-6.196;2023-02-15T09:26:11;7.80;99.90
35920;DHT22;36160;53.370;-6.196;2023-02-15T09:28:38;7.80;99.90
35920;DHT22;36160;53.370;-6.196;2023-02-15T09:31:09;7.80;99.90
35920;DHT22;36160;53.370;-6.196;2023-02-15T09:33:36;7.90;99.90
35920;DHT22;36160;53.370;-6.196;2023-02-15T09:36:03;7.90;99.90
35920;DHT22;36160;53.370;-6.196;2023-02-15T09:38:29;8.00;99.90
35920;DHT22;36160;53.370;-6.196;2023-02-15T09:46:56;8.20;99.90
35920;DHT22;36160;53.370;-6.196;2023-02-15T10:05:49;8.60;99.90
35920;DHT22;36160;53.370;-6.196;2023-02-15T10:14:25;8.90;99.90
35920;DHT22;36160;53.370;-6.196;2023-02-15T10:17:04;9.00;99.90
35920;DHT22;36160;53.370;-6.196;2023-02-15T10:22:58;9.10;99.90
35920;DHT22;36160;53.370;-6.196;2023-02-15T10:28:14;9.10;99.90
35920;DHT22;36160;53.370;-6.196;2023-02-15T10:30:49;9.30;99.90
35920;DHT22;36160;53.370;-6.196;2023-02-15T10:33:38;9.30;99.90
35920;DHT22;36160;53.370;-6.196;2023-02-15T10:38:50;9.60;99.90
35920;DHT22;36160;53.370;-6.196;2023-02-15T10:52:18;10.10;99.90
35920;DHT22;36160;53.370;-6.196;2023-02-15T10:57:59;10.20;99.90
35920;DHT22;36160;53.370;-6.196;2023-02-15T11:08:31;10.30;99.90
35920;DHT22;36160;53.370;-6.196;2023-02-15T11:11:22;10.30;99.90
35920;DHT22;36160;53.370;-6.196;2023-02-15T11:13:53;10.30;99.90
35920;DHT22;36160;53.370;-6.196;2023-02-15T11:16:24;10.40;99.90
35920;DHT22;36160;53.370;-6.196;2023-02-15T11:18:57;10.30;99.90
35920;DHT22;36160;53.370;-6.196;2023-02-15T11:21:31;10.20;99.90
35920;DHT22;36160;53.370;-6.196;2023-02-15T11:24:11;10.20;99.90
35920;DHT22;36160;53.370;-6.196;2023-02-15T11:30:10;10.20;99.90
35920;DHT22;36160;53.370;-6.196;2023-02-15T11:40:46;10.20;99.90
35920;DHT22;36160;53.370;-6.196;2023-02-15T11:46:00;10.30;99.90
35920;DHT22;36160;53.370;-6.196;2023-02-15T11:48:30;10.20;99.90
35920;DHT22;36160;53.370;-6.196;2023-02-15T11:50:57;10.30;99.90
35920;DHT22;36160;53.370;-6.196;2023-02-15T11:53:23;10.30;99.90
35920;DHT22;36160;53.370;-6.196;2023-02-15T11:55:54;10.30;99.90
35920;DHT22;36160;53.370;-6.196;2023-02-15T11:59:04;10.30;99.90
35920;DHT22;36160;53.370;-6.196;2023-02-15T12:06:48;10.30;99.90
35920;DHT22;36160;53.370;-6.196;2023-02-15T12:12:30;10.40;99.90
35920;DHT22;36160;53.370;-6.196;2023-02-15T12:14:58;10.40;99.90
35920;DHT22;36160;53.370;-6.196;2023-02-15T12:17:27;10.40;99.90
35920;DHT22;36160;53.370;-6.196;2023-02-15T12:19:57;10.50;99.90
35920;DHT22;36160;53.370;-6.196;2023-02-15T12:22:35;10.40;88.80
35920;DHT22;36160;53.370;-6.196;2023-02-15T12:25:22;10.40;74.50
35920;DHT22;36160;53.370;-6.196;2023-02-15T12:27:48;10.40;89.10
35920;DHT22;36160;53.370;-6.196;2023-02-15T12:30:37;10.50;81.00
35920;DHT22;36160;53.370;-6.196;2023-02-15T12:33:21;10.50;80.80
35920;DHT22;36160;53.370;-6.196;2023-02-15T12:35:57;10.50;50.40
35920;DHT22;36160;53.370;-6.196;2023-02-15T12:38:26;10.50;51.00
35920;DHT22;36160;53.370;-6.196;2023-02-15T12:41:23;10.50;50.70
35920;DHT22;36160;53.370;-6.196;2023-02-15T12:46:38;10.60;53.40
35920;DHT22;36160;53.370;-6.196;2023-02-15T12:51:48;10.60;42.20
35920;DHT22;36160;53.370;-6.196;2023-02-15T12:56:43;10.60;21.40
35920;DHT22;36160;53.370;-6.196;2023-02-15T12:59:13;10.60;22.20
35920;DHT22;36160;53.370;-6.196;2023-02-15T13:01:40;10.60;20.70
35920;DHT22;36160;53.370;-6.196;2023-02-15T13:06:49;10.60;12.90
35920;DHT22;36160;53.370;-6.196;2023-02-15T13:09:37;10.60;1.00
35920;DHT22;36160;53.370;-6.196;2023-02-15T13:12:23;10.60;2.00
35920;DHT22;36160;53.370;-6.196;2023-02-15T13:14:51;10.60;1.00
35920;DHT22;36160;53.370;-6.196;2023-02-15T13:17:21;10.70;1.00
35920;DHT22;36160;53.370;-6.196;2023-02-15T13:19:53;10.70;1.00
35920;DHT22;36160;53.370;-6.196;2023-02-15T13:22:27;10.70;1.00
35920;DHT22;36160;53.370;-6.196;2023-02-15T13:24:59;10.80;1.00
35920;DHT22;36160;53.370;-6.196;2023-02-15T13:27:36;10.70;1.00
35920;DHT22;36160;53.370;-6.196;2023-02-15T13:30:10;10.70;99.90
35920;DHT22;36160;53.370;-6.196;2023-02-15T13:32:40;10.80;99.90
35920;DHT22;36160;53.370;-6.196;2023-02-15T13:35:15;10.70;99.90
35920;DHT22;36160;53.370;-6.196;2023-02-15T14:11:07;11.10;99.90
35920;DHT22;36160;53.370;-6.196;2023-02-15T14:16:30;11.10;99.90
35920;DHT22;36160;53.370;-6.196;2023-02-15T14:24:43;11.10;99.90
35920;DHT22;36160;53.370;-6.196;2023-02-15T14:32:41;11.00;99.90
35920;DHT22;36160;53.370;-6.196;2023-02-15T14:35:13;11.00;99.90
35920;DHT22;36160;53.370;-6.196;2023-02-15T14:37:48;11.10;99.90
35920;DHT22;36160;53.370;-6.196;2023-02-15T14:40:19;11.10;99.90
35920;DHT22;36160;53.370;-6.196;2023-02-15T14:43:09;11.10;99.90
35920;DHT22;36160;53.370;-6.196;2023-02-15T14:48:56;11.10;99.90
35920;DHT22;36160;53.370;-6.196;2023-02-15T14:56:43;11.20;99.90
35920;DHT22;36160;53.370;-6.196;2023-02-15T14:59:14;11.10;99.90
35920;DHT22;36160;53.370;-6.196;2023-02-15T15:01:42;11.20;99.90
35920;DHT22;36160;53.370;-6.196;2023-02-15T15:04:25;11.10;99.90
35920;DHT22;36160;53.370;-6.196;2023-02-15T15:07:01;11.20;99.90
35920;DHT22;36160;53.370;-6.196;2023-02-15T15:09:30;11.10;99.90
35920;DHT22;36160;53.370;-6.196;2023-02-15T15:14:48;11.10;99.90
35920;DHT22;36160;53.370;-6.196;2023-02-15T15:19:59;11.10;99.90
35920;DHT22;36160;53.370;-6.196;2023-02-15T15:22:29;11.10;99.00
35920;DHT22;36160;53.370;-6.196;2023-02-15T15:25:08;11.00;89.10
35920;DHT22;36160;53.370;-6.196;2023-02-15T15:27:45;10.90;32.70
35920;DHT22;36160;53.370;-6.196;2023-02-15T15:49:09;10.80;99.90
35920;DHT22;36160;53.370;-6.196;2023-02-15T15:51:39;10.70;99.90
35920;DHT22;36160;53.370;-6.196;2023-02-15T15:54:05;10.70;99.90
35920;DHT22;36160;53.370;-6.196;2023-02-15T15:56:34;10.70;99.90
35920;DHT22;36160;53.370;-6.196;2023-02-15T15:59:04;10.70;99.90
35920;DHT22;36160;53.370;-6.196;2023-02-15T16:01:36;10.70;99.90
35920;DHT22;36160;53.370;-6.196;2023-02-15T16:04:03;10.80;99.90
35920;DHT22;36160;53.370;-6.196;2023-02-15T16:06:35;10.70;99.90
35920;DHT22;36160;53.370;-6.196;2023-02-15T16:09:14;10.80;99.90
35920;DHT22;36160;53.370;-6.196;2023-02-15T16:11:41;10.80;99.90
35920;DHT22;36160;53.370;-6.196;2023-02-15T16:14:16;10.90;99.90
35920;DHT22;36160;53.370;-6.196;2023-02-15T16:16:48;10.90;99.90
35920;DHT22;36160;53.370;-6.196;2023-02-15T16:19:42;10.80;99.90
35920;DHT22;36160;53.370;-6.196;2023-02-15T16:22:16;10.80;99.90
35920;DHT22;36160;53.370;-6.196;2023-02-15T16:25:19;10.80;99.90
35920;DHT22;36160;53.370;-6.196;2023-02-15T16:27:47;10.80;99.90
35920;DHT22;36160;53.370;-6.196;2023-02-15T16:30:24;10.70;99.90
35920;DHT22;36160;53.370;-6.196;2023-02-15T16:32:53;10.70;99.90
35920;DHT22;36160;53.370;-6.196;2023-02-15T16:35:21;10.70;99.90
35920;DHT22;36160;53.370;-6.196;2023-02-15T16:37:47;10.60;99.90
35920;DHT22;36160;53.370;-6.196;2023-02-15T16:40:26;10.60;99.90
35920;DHT22;36160;53.370;-6.196;2023-02-15T16:43:00;10.60;99.90
35920;DHT22;36160;53.370;-6.196;2023-02-15T16:45:27;10.50;99.90
35920;DHT22;36160;53.370;-6.196;2023-02-15T16:47:57;10.50;99.90
35920;DHT22;36160;53.370;-6.196;2023-02-15T16:50:31;10.50;99.90
35920;DHT22;36160;53.370;-6.196;2023-02-15T16:52:58;10.50;99.90
35920;DHT22;36160;53.370;-6.196;2023-02-15T16:55:36;10.50;99.90
35920;DHT22;36160;53.370;-6.196;2023-02-15T16:58:05;10.50;99.90
35920;DHT22;36160;53.370;-6.196;2023-02-15T17:00:35;10.50;99.90
35920;DHT22;36160;53.370;-6.196;2023-02-15T17:08:19;10.50;99.90
35920;DHT22;36160;53.370;-6.196;2023-02-15T17:13:36;10.40;99.90
35920;DHT22;36160;53.370;-6.196;2023-02-15T17:18:43;10.40;99.90
35920;DHT22;36160;53.370;-6.196;2023-02-15T17:21:12;10.30;99.90
35920;DHT22;36160;53.370;-6.196;2023-02-15T17:23:44;10.30;99.90
35920;DHT22;36160;53.370;-6.196;2023-02-15T17:26:22;10.30;99.90
35920;DHT22;36160;53.370;-6.196;2023-02-15T17:28:55;10.30;99.90
35920;DHT22;36160;53.370;-6.196;2023-02-15T17:31:24;10.30;99.90
35920;DHT22;36160;53.370;-6.196;2023-02-15T17:33:51;10.20;99.90
35920;DHT22;36160;53.370;-6.196;2023-02-15T17:36:21;10.20;99.90
35920;DHT22;36160;53.370;-6.196;2023-02-15T17:41:29;10.20;99.90
35920;DHT22;36160;53.370;-6.196;2023-02-15T17:43:55;10.20;99.90
35920;DHT22;36160;53.370;-6.196;2023-02-15T17:46:21;10.20;99.90
35920;DHT22;36160;53.370;-6.196;2023-02-15T17:48:52;10.20;99.90
35920;DHT22;36160;53.370;-6.196;2023-02-15T17:51:20;10.20;99.90
35920;DHT22;36160;53.370;-6.196;2023-02-15T17:53:47;10.20;99.90
35920;DHT22;36160;53.370;-6.196;2023-02-15T17:56:32;10.10;99.90
35920;DHT22;36160;53.370;-6.196;2023-02-15T17:58:58;10.20;99.90
35920;DHT22;36160;53.370;-6.196;2023-02-15T18:01:24;10.10;99.90
35920;DHT22;36160;53.370;-6.196;2023-02-15T18:04:10;10.20;99.90
35920;DHT22;36160;53.370;-6.196;2023-02-15T18:06:54;10.10;99.90
35920;DHT22;36160;53.370;-6.196;2023-02-15T18:09:39;10.10;99.90
35920;DHT22;36160;53.370;-6.196;2023-02-15T18:12:27;10.10;99.90
35920;DHT22;36160;53.370;-6.196;2023-02-15T18:14:53;10.10;99.90
35920;DHT22;36160;53.370;-6.196;2023-02-15T18:17:34;10.10;99.90
35920;DHT22;36160;53.370;-6.196;2023-02-15T18:20:02;10.10;99.90
35920;DHT22;36160;53.370;-6.196;2023-02-15T18:22:30;10.10;99.90
35920;DHT22;36160;53.370;-6.196;2023-02-15T18:24:56;10.10;99.90
35920;DHT22;36160;53.370;-6.196;2023-02-15T18:27:22;10.10;99.90
35920;DHT22;36160;53.370;-6.196;2023-02-15T18:29:48;10.10;99.90
35920;DHT22;36160;53.370;-6.196;2023-02-15T18:32:21;10.20;99.90
35920;DHT22;36160;53.370;-6.196;2023-02-15T18:34:49;10.20;99.90
35920;DHT22;36160;53.370;-6.196;2023-02-15T18:37:19;10.20;99.90
35920;DHT22;36160;53.370;-6.196;2023-02-15T18:39:49;10.20;99.90
35920;DHT22;36160;53.370;-6.196;2023-02-15T18:42:24;10.20;99.90
35920;DHT22;36160;53.370;-6.196;2023-02-15T18:44:58;10.10;1.00
35920;DHT22;36160;53.370;-6.196;2023-02-15T18:47:25;10.10;99.90
35920;DHT22;36160;53.370;-6.196;2023-02-15T18:49:51;10.10;1.00
35920;DHT22;36160;53.370;-6.196;2023-02-15T18:52:28;10.10;1.00
35920;DHT22;36160;53.370;-6.196;2023-02-15T18:54:59;10.10;1.00
35920;DHT22;36160;53.370;-6.196;2023-02-15T18:57:27;10.00;1.00
35920;DHT22;36160;53.370;-6.196;2023-02-15T18:59:53;10.10;1.00
35920;DHT22;36160;53.370;-6.196;2023-02-15T19:02:19;10.00;4.50
35920;DHT22;36160;53.370;-6.196;2023-02-15T19:04:45;10.10;3.30
35920;DHT22;36160;53.370;-6.196;2023-02-15T19:07:23;10.10;5.40
35920;DHT22;36160;53.370;-6.196;2023-02-15T19:09:54;10.10;17.10
35920;DHT22;36160;53.370;-6.196;2023-02-15T19:12:20;10.00;20.40
35920;DHT22;36160;53.370;-6.196;2023-02-15T19:14:47;10.00;25.10
35920;DHT22;36160;53.370;-6.196;2023-02-15T19:17:18;10.10;27.30
35920;DHT22;36160;53.370;-6.196;2023-02-15T19:19:44;10.10;39.80
35920;DHT22;36160;53.370;-6.196;2023-02-15T19:22:23;10.10;34.30